Terminal Aerodrome Forecast
Issued by NWS

Home | Current Version | Previous Version | Text Only | Print | Product List | Glossary On
Versions: 1 2 3 4 5 6 7 8 9 10 11 12 13 14 15 16 17 18 19 20 21 22 23 24 25 26 27
000
FTUS41 KOKX 260331 AAB
TAFTEB
TAF AMD
KTEB 260331Z 2604/2624 02008KT P6SM BKN250
     FM260600 02004KT P6SM BKN250
     FM261500 35006KT P6SM SCT050
     FM261900 32005KT P6SM SCT050 SCT100
     FM262300 31005KT P6SM BKN050 BKN100=

USA.gov is the U.S. government's official web portal to all federal, state and local government web resources and services.